Time,TemperatureF,DewpointF,PressureIn,WindDirection,WindDirectionDegrees,WindSpeedMPH,WindSpeedGustMPH,Humidity,HourlyPrecipIn,Conditions,Clouds,dailyrainin,SoftwareType,DateUTC
2013-08-23 00:01:00,79.0,29.0,29.48,North,0,0.0,1.0,16,0.00,,,-99.99,,2013-08-23 07:01:00,
2013-08-23 00:52:00,78.0,31.0,29.48,North,-999,0.0,0.0,18,0.00,,,-99.99,,2013-08-23 07:52:00,
2013-08-23 01:02:00,78.0,31.0,29.48,North,-999,0.0,0.0,18,0.00,,,-99.99,,2013-08-23 08:02:00,
2013-08-23 01:52:00,76.0,29.0,29.47,North,-999,0.0,0.0,18,0.00,,,-99.99,,2013-08-23 08:52:00,
2013-08-23 02:01:00,76.0,29.0,29.47,North,-999,0.0,0.0,18,0.00,,,-99.99,,2013-08-23 09:01:00,
2013-08-23 02:53:00,75.0,34.0,29.45,North,-999,0.0,0.0,22,0.00,,,-99.99,,2013-08-23 09:53:00,
2013-08-23 03:03:00,75.0,34.0,29.45,North,-999,0.0,0.0,22,0.00,,,-99.99,,2013-08-23 10:03:00,
2013-08-23 04:53:00,75.0,31.0,29.43,North,-999,0.0,0.0,20,0.00,,,-99.99,,2013-08-23 11:53:00,
2013-08-23 05:01:00,75.0,31.0,29.43,North,-999,0.0,0.0,20,0.00,,,-99.99,,2013-08-23 12:01:00,
2013-08-23 05:52:00,72.0,33.0,29.43,North,-999,0.0,0.0,24,0.00,,,-99.99,,2013-08-23 12:52:00,
2013-08-23 06:02:00,72.0,33.0,29.43,North,-999,0.0,0.0,24,0.00,,,-99.99,,2013-08-23 13:02:00,
2013-08-23 06:52:00,72.0,31.0,29.43,North,-999,0.0,0.0,22,0.00,,,-99.99,,2013-08-23 13:52:00,
2013-08-23 07:02:00,72.0,31.0,29.43,North,-999,0.0,0.0,22,0.00,,,-99.99,,2013-08-23 14:02:00,
2013-08-23 07:52:00,73.0,36.0,29.44,North,-999,0.0,0.0,26,0.00,,,-99.99,,2013-08-23 14:52:00,
2013-08-23 08:01:00,73.0,36.0,29.44,North,-999,0.0,0.0,26,0.00,,,-99.99,,2013-08-23 15:01:00,
2013-08-23 08:54:00,77.0,33.0,29.44,North,-999,0.0,0.0,20,0.00,,,-99.99,,2013-08-23 15:54:00,
2013-08-23 09:05:00,77.0,33.0,29.44,North,-999,0.0,0.0,20,0.00,,,-99.99,,2013-08-23 16:05:00,
2013-08-23 09:53:00,79.0,36.0,29.44,North,-999,0.0,0.0,21,0.00,,,-99.99,,2013-08-23 16:53:00,
2013-08-23 10:03:00,79.0,36.0,29.44,North,-999,0.0,0.0,21,0.00,,,-99.99,,2013-08-23 17:03:00,
2013-08-23 10:23:00,81.0,35.0,29.45,North,-999,0.0,0.0,19,0.00,,,-99.99,,2013-08-23 17:23:00,
2013-08-23 10:33:00,81.0,35.0,29.45,North,-999,0.0,0.0,19,0.00,,,-99.99,,2013-08-23 17:33:00,
2013-08-23 10:53:00,83.0,39.0,29.45,North,-999,0.0,0.0,21,0.00,,,-99.99,,2013-08-23 17:53:00,
2013-08-23 11:02:00,83.0,39.0,29.45,North,-999,0.0,0.0,21,0.00,,,-99.99,,2013-08-23 18:02:00,
2013-08-23 11:22:00,82.0,43.0,29.45,North,-999,0.0,0.0,25,0.00,,,-99.99,,2013-08-23 18:22:00,
2013-08-23 11:32:00,82.0,43.0,29.45,North,-999,0.0,0.0,25,0.00,,,-99.99,,2013-08-23 18:32:00,
2013-08-23 11:52:00,83.0,36.0,29.44,SW,230,1.0,1.0,19,0.00,,,-99.99,,2013-08-23 18:52:00,
2013-08-23 12:01:00,83.0,36.0,29.44,SW,230,1.0,1.0,19,0.00,,,-99.99,,2013-08-23 19:01:00,
2013-08-23 12:22:00,84.0,45.0,29.44,North,-999,0.0,0.0,26,0.00,,,-99.99,,2013-08-23 19:22:00,
2013-08-23 12:31:00,84.0,45.0,29.44,North,-999,0.0,0.0,26,0.00,,,-99.99,,2013-08-23 19:31:00,
2013-08-23 12:52:00,84.0,43.0,29.43,North,-999,0.0,0.0,24,0.00,,,-99.99,,2013-08-23 19:52:00,
2013-08-23 13:01:00,84.0,43.0,29.43,North,-999,0.0,0.0,24,0.00,,,-99.99,,2013-08-23 20:01:00,
2013-08-23 13:22:00,85.0,42.0,29.42,North,-999,0.0,0.0,22,0.00,,,-99.99,,2013-08-23 20:22:00,
2013-08-23 13:32:00,85.0,42.0,29.42,North,-999,0.0,0.0,22,0.00,,,-99.99,,2013-08-23 20:32:00,
2013-08-23 13:52:00,85.0,41.0,29.41,North,-999,0.0,0.0,21,0.00,,,-99.99,,2013-08-23 20:52:00,
2013-08-23 14:02:00,85.0,41.0,29.41,North,-999,0.0,0.0,21,0.00,,,-99.99,,2013-08-23 21:02:00,
2013-08-23 14:21:00,86.0,39.0,29.41,SW,220,1.0,1.0,19,0.00,,,-99.99,,2013-08-23 21:21:00,
2013-08-23 14:34:00,86.0,39.0,29.41,SW,220,1.0,1.0,19,0.00,,,-99.99,,2013-08-23 21:34:00,
2013-08-23 14:54:00,86.0,43.0,29.40,SSW,210,1.0,1.0,22,0.00,,,-99.99,,2013-08-23 21:54:00,
2013-08-23 15:04:00,86.0,43.0,29.40,SSW,210,1.0,1.0,22,0.00,,,-99.99,,2013-08-23 22:04:00,
2013-08-23 15:24:00,86.0,45.0,29.38,SSW,210,1.0,1.0,24,0.00,,,-99.99,,2013-08-23 22:24:00,
2013-08-23 15:33:00,86.0,45.0,29.38,SSW,210,1.0,1.0,24,0.00,,,-99.99,,2013-08-23 22:33:00,
2013-08-23 15:53:00,88.0,47.0,29.36,SSE,150,1.0,1.0,24,0.00,,,-99.99,,2013-08-23 22:53:00,
2013-08-23 16:03:00,88.0,47.0,29.36,SSE,150,1.0,1.0,24,0.00,,,-99.99,,2013-08-23 23:03:00,
2013-08-23 16:22:00,87.0,48.0,29.35,North,0,0.0,1.0,26,0.00,,,-99.99,,2013-08-23 23:22:00,
2013-08-23 16:33:00,87.0,48.0,29.35,North,0,0.0,1.0,26,0.00,,,-99.99,,2013-08-23 23:33:00,
2013-08-23 16:54:00,87.0,48.0,29.34,SSW,200,2.0,2.0,26,0.00,,,-99.99,,2013-08-23 23:54:00,
2013-08-23 17:02:00,87.0,48.0,29.34,SSW,200,2.0,2.0,26,0.00,,,-99.99,,2013-08-24 00:02:00,
2013-08-23 17:21:00,86.0,46.0,29.34,North,-999,0.0,0.0,25,0.00,,,-99.99,,2013-08-24 00:21:00,
2013-08-23 17:32:00,86.0,46.0,29.34,North,-999,0.0,0.0,25,0.00,,,-99.99,,2013-08-24 00:32:00,
2013-08-23 17:53:00,86.0,41.0,29.33,North,-999,0.0,0.0,21,0.00,,,-99.99,,2013-08-24 00:53:00,
2013-08-23 18:02:00,86.0,41.0,29.33,North,-999,0.0,0.0,21,0.00,,,-99.99,,2013-08-24 01:02:00,
2013-08-23 18:22:00,84.0,42.0,29.33,SW,220,3.0,4.0,23,0.00,,,-99.99,,2013-08-24 01:22:00,
2013-08-23 18:32:00,84.0,42.0,29.33,SW,220,3.0,4.0,23,0.00,,,-99.99,,2013-08-24 01:32:00,
2013-08-23 18:53:00,82.0,42.0,29.32,North,0,0.0,1.0,24,0.00,,,-99.99,,2013-08-24 01:53:00,
2013-08-23 19:02:00,82.0,42.0,29.32,North,0,0.0,1.0,24,0.00,,,-99.99,,2013-08-24 02:02:00,
2013-08-23 19:22:00,80.0,42.0,29.32,North,0,0.0,1.0,26,0.00,,,-99.99,,2013-08-24 02:22:00,
2013-08-23 19:32:00,80.0,42.0,29.32,North,0,0.0,1.0,26,0.00,,,-99.99,,2013-08-24 02:32:00,
2013-08-23 19:52:00,78.0,43.0,29.32,North,-999,0.0,0.0,29,0.00,,,-99.99,,2013-08-24 02:52:00,
2013-08-23 20:02:00,78.0,43.0,29.32,North,-999,0.0,0.0,29,0.00,,,-99.99,,2013-08-24 03:02:00,
2013-08-23 20:22:00,76.0,41.0,29.32,WNW,300,1.0,1.0,29,0.00,,,-99.99,,2013-08-24 03:22:00,
2013-08-23 20:34:00,76.0,41.0,29.32,WNW,300,1.0,1.0,29,0.00,,,-99.99,,2013-08-24 03:34:00,
2013-08-23 20:54:00,76.0,42.0,29.33,North,-999,0.0,0.0,30,0.00,,,-99.99,,2013-08-24 03:54:00,
2013-08-23 21:04:00,76.0,42.0,29.33,North,-999,0.0,0.0,30,0.00,,,-99.99,,2013-08-24 04:04:00,
2013-08-23 21:24:00,76.0,42.0,29.34,North,-999,0.0,0.0,30,0.00,,,-99.99,,2013-08-24 04:24:00,
2013-08-23 21:34:00,76.0,42.0,29.34,North,-999,0.0,0.0,30,0.00,,,-99.99,,2013-08-24 04:34:00,
2013-08-23 21:53:00,78.0,41.0,29.36,North,-999,0.0,0.0,27,0.00,,,-99.99,,2013-08-24 04:53:00,
2013-08-23 22:03:00,78.0,41.0,29.36,North,-999,0.0,0.0,27,0.00,,,-99.99,,2013-08-24 05:03:00,
2013-08-23 22:23:00,78.0,40.0,29.36,NNW,330,1.0,1.0,26,0.00,,,-99.99,,2013-08-24 05:23:00,
2013-08-23 22:32:00,78.0,40.0,29.36,NNW,330,1.0,1.0,26,0.00,,,-99.99,,2013-08-24 05:32:00,
2013-08-23 22:53:00,78.0,36.0,29.37,North,-999,0.0,0.0,22,0.00,,,-99.99,,2013-08-24 05:53:00,
2013-08-23 23:02:00,78.0,36.0,29.37,North,-999,0.0,0.0,22,0.00,,,-99.99,,2013-08-24 06:02:00,
2013-08-23 23:21:00,76.0,40.0,29.37,North,-999,0.0,0.0,27,0.00,,,-99.99,,2013-08-24 06:21:00,
2013-08-23 23:32:00,76.0,40.0,29.37,North,-999,0.0,0.0,27,0.00,,,-99.99,,2013-08-24 06:32:00,
2013-08-23 23:52:00,75.0,41.0,29.38,North,-999,0.0,0.0,30,0.00,,,-99.99,,2013-08-24 06:52:00,